sensor_id;sensor_type;location;lat;lon;timestamp;pressure;altitude;pressure_sealevel;temperature;humidity
10852;BME280;5479;52.046;6.314;2023-09-19T00:01:47;100593.56;;;15.97;100.00
10852;BME280;5479;52.046;6.314;2023-09-19T00:04:16;100604.50;;;15.94;100.00
10852;BME280;5479;52.046;6.314;2023-09-19T00:06:49;100610.34;;;15.88;100.00
10852;BME280;5479;52.046;6.314;2023-09-19T00:09:22;100612.31;;;15.86;100.00
10852;BME280;5479;52.046;6.314;2023-09-19T00:11:58;100606.72;;;15.89;100.00
10852;BME280;5479;52.046;6.314;2023-09-19T00:14:26;100611.13;;;15.79;100.00
10852;BME280;5479;52.046;6.314;2023-09-19T00:16:55;100606.97;;;15.86;100.00
10852;BME280;5479;52.046;6.314;2023-09-19T00:19:24;100609.19;;;15.81;100.00
10852;BME280;5479;52.046;6.314;2023-09-19T00:21:52;100605.22;;;15.75;100.00
10852;BME280;5479;52.046;6.314;2023-09-19T00:24:20;100610.19;;;15.68;100.00
10852;BME280;5479;52.046;6.314;2023-09-19T00:26:52;100610.19;;;15.68;100.00
10852;BME280;5479;52.046;6.314;2023-09-19T00:29:22;100613.38;;;15.62;100.00
10852;BME280;5479;52.046;6.314;2023-09-19T00:31:53;100609.53;;;15.55;100.00
10852;BME280;5479;52.046;6.314;2023-09-19T00:34:31;100625.78;;;15.52;100.00
10852;BME280;5479;52.046;6.314;2023-09-19T00:37:02;100626.38;;;15.56;100.00
10852;BME280;5479;52.046;6.314;2023-09-19T00:39:32;100622.88;;;15.55;100.00
10852;BME280;5479;52.046;6.314;2023-09-19T00:42:05;100629.44;;;15.51;100.00
10852;BME280;5479;52.046;6.314;2023-09-19T00:44:36;100623.81;;;15.54;100.00
10852;BME280;5479;52.046;6.314;2023-09-19T00:47:05;100626.13;;;15.59;100.00
10852;BME280;5479;52.046;6.314;2023-09-19T00:49:33;100632.06;;;15.62;100.00
10852;BME280;5479;52.046;6.314;2023-09-19T00:52:05;100629.03;;;15.67;100.00
10852;BME280;5479;52.046;6.314;2023-09-19T00:54:36;100631.56;;;15.68;100.00
10852;BME280;5479;52.046;6.314;2023-09-19T00:57:05;100636.81;;;15.59;100.00
10852;BME280;5479;52.046;6.314;2023-09-19T00:59:36;100638.50;;;15.60;100.00
10852;BME280;5479;52.046;6.314;2023-09-19T01:02:06;100646.63;;;15.58;100.00
10852;BME280;5479;52.046;6.314;2023-09-19T01:04:37;100639.34;;;15.60;100.00
10852;BME280;5479;52.046;6.314;2023-09-19T01:07:05;100648.06;;;15.62;100.00
10852;BME280;5479;52.046;6.314;2023-09-19T01:09:34;100645.19;;;15.54;100.00
10852;BME280;5479;52.046;6.314;2023-09-19T01:12:05;100655.53;;;15.48;100.00
10852;BME280;5479;52.046;6.314;2023-09-19T01:14:42;100653.81;;;15.47;100.00
10852;BME280;5479;52.046;6.314;2023-09-19T01:17:15;100641.94;;;15.51;100.00
10852;BME280;5479;52.046;6.314;2023-09-19T01:20:15;100647.38;;;15.49;100.00
10852;BME280;5479;52.046;6.314;2023-09-19T01:22:53;100662.28;;;15.52;100.00
10852;BME280;5479;52.046;6.314;2023-09-19T01:28:32;100664.50;;;15.47;100.00
10852;BME280;5479;52.046;6.314;2023-09-19T01:31:10;100654.41;;;15.39;100.00
10852;BME280;5479;52.046;6.314;2023-09-19T01:33:59;100656.38;;;15.26;100.00
10852;BME280;5479;52.046;6.314;2023-09-19T01:36:29;100660.53;;;15.19;100.00
10852;BME280;5479;52.046;6.314;2023-09-19T01:38:58;100661.63;;;15.17;100.00
10852;BME280;5479;52.046;6.314;2023-09-19T01:41:50;100673.97;;;15.18;100.00
10852;BME280;5479;52.046;6.314;2023-09-19T01:44:44;100673.63;;;15.11;100.00
10852;BME280;5479;52.046;6.314;2023-09-19T01:47:26;100675.31;;;15.12;100.00
10852;BME280;5479;52.046;6.314;2023-09-19T01:50:10;100673.16;;;15.06;100.00
10852;BME280;5479;52.046;6.314;2023-09-19T01:52:49;100676.53;;;15.08;100.00
10852;BME280;5479;52.046;6.314;2023-09-19T01:55:22;100676.53;;;14.97;100.00
10852;BME280;5479;52.046;6.314;2023-09-19T01:58:00;100680.91;;;14.87;100.00
10852;BME280;5479;52.046;6.314;2023-09-19T02:00:34;100676.78;;;14.83;100.00
10852;BME280;5479;52.046;6.314;2023-09-19T02:03:06;100675.19;;;14.80;100.00
10852;BME280;5479;52.046;6.314;2023-09-19T02:05:36;100678.00;;;14.79;100.00
10852;BME280;5479;52.046;6.314;2023-09-19T02:08:06;100682.72;;;14.75;100.00
10852;BME280;5479;52.046;6.314;2023-09-19T02:10:34;100683.09;;;14.82;100.00
10852;BME280;5479;52.046;6.314;2023-09-19T02:13:04;100687.91;;;14.88;100.00
10852;BME280;5479;52.046;6.314;2023-09-19T02:15:33;100689.88;;;14.86;100.00
10852;BME280;5479;52.046;6.314;2023-09-19T02:18:01;100691.56;;;14.87;100.00
10852;BME280;5479;52.046;6.314;2023-09-19T02:20:34;100696.66;;;14.90;100.00
10852;BME280;5479;52.046;6.314;2023-09-19T02:23:03;100696.66;;;14.90;100.00
10852;BME280;5479;52.046;6.314;2023-09-19T02:25:34;100692.53;;;14.97;100.00
10852;BME280;5479;52.046;6.314;2023-09-19T02:28:04;100695.56;;;14.92;100.00
10852;BME280;5479;52.046;6.314;2023-09-19T02:30:32;100700.63;;;14.95;100.00
10852;BME280;5479;52.046;6.314;2023-09-19T02:33:02;100708.16;;;15.01;100.00
10852;BME280;5479;52.046;6.314;2023-09-19T02:35:35;100703.69;;;15.13;100.00
10852;BME280;5479;52.046;6.314;2023-09-19T02:38:04;100695.69;;;15.13;100.00
10852;BME280;5479;52.046;6.314;2023-09-19T02:40:37;100693.41;;;15.08;100.00
10852;BME280;5479;52.046;6.314;2023-09-19T02:43:06;100698.59;;;14.99;100.00
10852;BME280;5479;52.046;6.314;2023-09-19T02:45:36;100693.50;;;14.96;100.00
10852;BME280;5479;52.046;6.314;2023-09-19T02:48:07;100686.00;;;14.90;100.00
10852;BME280;5479;52.046;6.314;2023-09-19T02:50:51;100693.50;;;14.85;100.00
10852;BME280;5479;52.046;6.314;2023-09-19T02:53:19;100696.66;;;14.79;100.00
10852;BME280;5479;52.046;6.314;2023-09-19T02:55:54;100710.94;;;14.67;100.00
10852;BME280;5479;52.046;6.314;2023-09-19T02:58:21;100710.69;;;14.70;100.00
10852;BME280;5479;52.046;6.314;2023-09-19T03:01:07;100708.41;;;14.65;100.00
10852;BME280;5479;52.046;6.314;2023-09-19T03:03:35;100715.28;;;14.57;100.00
10852;BME280;5479;52.046;6.314;2023-09-19T03:06:06;100714.66;;;14.53;100.00
10852;BME280;5479;52.046;6.314;2023-09-19T03:08:35;100710.19;;;14.54;100.00
10852;BME280;5479;52.046;6.314;2023-09-19T03:11:08;100714.28;;;14.46;100.00
10852;BME280;5479;52.046;6.314;2023-09-19T03:13:39;100715.16;;;14.47;100.00
10852;BME280;5479;52.046;6.314;2023-09-19T03:16:11;100714.38;;;14.45;100.00
10852;BME280;5479;52.046;6.314;2023-09-19T03:18:44;100722.16;;;14.48;100.00
10852;BME280;5479;52.046;6.314;2023-09-19T03:21:18;100723.00;;;14.48;100.00
10852;BME280;5479;52.046;6.314;2023-09-19T03:23:48;100720.81;;;14.42;100.00
10852;BME280;5479;52.046;6.314;2023-09-19T03:26:18;100724.78;;;14.37;100.00
10852;BME280;5479;52.046;6.314;2023-09-19T03:28:48;100719.91;;;14.31;100.00
10852;BME280;5479;52.046;6.314;2023-09-19T03:31:17;100722.66;;;14.29;100.00
10852;BME280;5479;52.046;6.314;2023-09-19T03:33:45;100720.25;;;14.26;100.00
10852;BME280;5479;52.046;6.314;2023-09-19T03:36:27;100721.69;;;14.19;100.00
10852;BME280;5479;52.046;6.314;2023-09-19T03:38:59;100715.72;;;14.16;100.00
10852;BME280;5479;52.046;6.314;2023-09-19T03:41:34;100714.28;;;14.12;100.00
10852;BME280;5479;52.046;6.314;2023-09-19T03:44:09;100707.69;;;14.05;100.00
10852;BME280;5479;52.046;6.314;2023-09-19T03:46:37;100716.53;;;14.05;100.00
10852;BME280;5479;52.046;6.314;2023-09-19T03:49:11;100716.97;;;13.99;100.00
10852;BME280;5479;52.046;6.314;2023-09-19T03:51:50;100721.78;;;13.94;100.00
10852;BME280;5479;52.046;6.314;2023-09-19T03:54:24;100720.56;;;13.87;100.00
10852;BME280;5479;52.046;6.314;2023-09-19T03:56:55;100717.19;;;13.85;100.00
10852;BME280;5479;52.046;6.314;2023-09-19T03:59:26;100727.53;;;13.77;100.00
10852;BME280;5479;52.046;6.314;2023-09-19T04:01:55;100723.06;;;13.77;100.00
10852;BME280;5479;52.046;6.314;2023-09-19T04:04:24;100720.16;;;13.80;100.00
10852;BME280;5479;52.046;6.314;2023-09-19T04:06:58;100729.97;;;13.80;100.00
10852;BME280;5479;52.046;6.314;2023-09-19T04:09:27;100725.59;;;13.79;100.00
10852;BME280;5479;52.046;6.314;2023-09-19T04:11:55;100717.41;;;13.82;100.00
10852;BME280;5479;52.046;6.314;2023-09-19T04:14:23;100710.59;;;13.78;100.00
10852;BME280;5479;52.046;6.314;2023-09-19T04:16:51;100714.69;;;13.71;100.00
10852;BME280;5479;52.046;6.314;2023-09-19T04:19:20;100708.84;;;13.66;100.00
10852;BME280;5479;52.046;6.314;2023-09-19T04:21:49;100714.16;;;13.66;100.00
10852;BME280;5479;52.046;6.314;2023-09-19T04:24:19;100725.88;;;13.63;100.00
10852;BME280;5479;52.046;6.314;2023-09-19T04:26:47;100727.91;;;13.60;100.00
10852;BME280;5479;52.046;6.314;2023-09-19T04:29:15;100740.47;;;13.58;100.00
10852;BME280;5479;52.046;6.314;2023-09-19T04:32:06;100744.09;;;13.57;100.00
10852;BME280;5479;52.046;6.314;2023-09-19T04:34:34;100746.53;;;13.60;100.00
10852;BME280;5479;52.046;6.314;2023-09-19T04:37:02;100755.59;;;13.57;100.00
10852;BME280;5479;52.046;6.314;2023-09-19T04:39:32;100775.06;;;13.58;100.00
10852;BME280;5479;52.046;6.314;2023-09-19T04:42:00;100778.38;;;13.61;100.00
10852;BME280;5479;52.046;6.314;2023-09-19T04:44:29;100770.25;;;13.63;100.00
10852;BME280;5479;52.046;6.314;2023-09-19T04:46:57;100771.75;;;13.67;100.00
10852;BME280;5479;52.046;6.314;2023-09-19T04:49:47;100776.59;;;13.73;100.00
10852;BME280;5479;52.046;6.314;2023-09-19T04:52:15;100774.72;;;13.75;100.00
10852;BME280;5479;52.046;6.314;2023-09-19T04:54:44;100778.09;;;13.77;100.00
10852;BME280;5479;52.046;6.314;2023-09-19T04:57:14;100781.94;;;13.73;100.00
10852;BME280;5479;52.046;6.314;2023-09-19T04:59:42;100790.47;;;13.65;100.00
10852;BME280;5479;52.046;6.314;2023-09-19T05:02:11;100794.94;;;13.65;100.00
10852;BME280;5479;52.046;6.314;2023-09-19T05:04:42;100799.41;;;13.64;100.00
10852;BME280;5479;52.046;6.314;2023-09-19T05:07:10;100805.81;;;13.62;100.00
10852;BME280;5479;52.046;6.314;2023-09-19T05:09:38;100799.41;;;13.64;100.00
10852;BME280;5479;52.046;6.314;2023-09-19T05:12:10;100796.66;;;13.66;100.00
10852;BME280;5479;52.046;6.314;2023-09-19T05:14:38;100796.53;;;13.67;100.00
10852;BME280;5479;52.046;6.314;2023-09-19T05:17:08;100798.13;;;13.70;100.00
10852;BME280;5479;52.046;6.314;2023-09-19T05:19:36;100796.31;;;13.70;100.00
10852;BME280;5479;52.046;6.314;2023-09-19T05:22:05;100794.50;;;13.71;100.00
10852;BME280;5479;52.046;6.314;2023-09-19T05:24:33;100783.44;;;13.77;100.00
10852;BME280;5479;52.046;6.314;2023-09-19T05:27:03;100787.91;;;13.76;100.00
10852;BME280;5479;52.046;6.314;2023-09-19T05:29:32;100790.97;;;13.83;100.00
10852;BME280;5479;52.046;6.314;2023-09-19T05:32:01;100793.16;;;13.89;100.00
10852;BME280;5479;52.046;6.314;2023-09-19T05:34:30;100788.69;;;13.89;100.00
10852;BME280;5479;52.046;6.314;2023-09-19T05:36:58;100785.19;;;13.89;100.00
10852;BME280;5479;52.046;6.314;2023-09-19T05:39:29;100786.25;;;13.86;100.00
10852;BME280;5479;52.046;6.314;2023-09-19T05:42:06;100787.41;;;13.95;100.00
10852;BME280;5479;52.046;6.314;2023-09-19T05:44:36;100804.41;;;14.05;100.00
10852;BME280;5479;52.046;6.314;2023-09-19T05:47:06;100802.25;;;14.10;100.00
10852;BME280;5479;52.046;6.314;2023-09-19T05:49:38;100807.13;;;14.16;100.00
10852;BME280;5479;52.046;6.314;2023-09-19T05:52:06;100803.28;;;14.20;100.00
10852;BME280;5479;52.046;6.314;2023-09-19T05:54:35;100805.19;;;14.18;100.00
10852;BME280;5479;52.046;6.314;2023-09-19T05:57:06;100807.63;;;14.21;100.00
10852;BME280;5479;52.046;6.314;2023-09-19T05:59:39;100813.19;;;14.18;100.00
10852;BME280;5479;52.046;6.314;2023-09-19T06:02:10;100800.13;;;14.26;100.00
10852;BME280;5479;52.046;6.314;2023-09-19T06:04:38;100797.69;;;14.23;100.00
10852;BME280;5479;52.046;6.314;2023-09-19T06:07:07;100802.81;;;14.26;100.00
10852;BME280;5479;52.046;6.314;2023-09-19T06:09:35;100800.50;;;14.22;100.00
10852;BME280;5479;52.046;6.314;2023-09-19T06:12:04;100802.72;;;14.28;100.00
10852;BME280;5479;52.046;6.314;2023-09-19T06:14:32;100806.44;;;14.25;100.00
10852;BME280;5479;52.046;6.314;2023-09-19T06:17:00;100817.34;;;14.22;100.00
10852;BME280;5479;52.046;6.314;2023-09-19T06:19:32;100817.28;;;14.35;100.00
10852;BME280;5479;52.046;6.314;2023-09-19T06:22:00;100827.50;;;14.41;100.00
10852;BME280;5479;52.046;6.314;2023-09-19T06:24:31;100815.06;;;14.52;100.00
10852;BME280;5479;52.046;6.314;2023-09-19T06:27:01;100827.19;;;14.57;100.00
10852;BME280;5479;52.046;6.314;2023-09-19T06:29:31;100824.66;;;14.66;100.00
10852;BME280;5479;52.046;6.314;2023-09-19T06:32:00;100824.88;;;14.87;100.00
10852;BME280;5479;52.046;6.314;2023-09-19T06:34:28;100821.00;;;14.91;100.00
10852;BME280;5479;52.046;6.314;2023-09-19T06:37:04;100827.06;;;15.04;100.00
10852;BME280;5479;52.046;6.314;2023-09-19T06:39:33;100828.81;;;15.16;100.00
10852;BME280;5479;52.046;6.314;2023-09-19T06:42:04;100834.75;;;15.31;100.00
10852;BME280;5479;52.046;6.314;2023-09-19T06:44:36;100836.59;;;15.41;100.00
10852;BME280;5479;52.046;6.314;2023-09-19T06:47:06;100832.75;;;15.67;100.00
10852;BME280;5479;52.046;6.314;2023-09-19T06:49:35;100840.00;;;15.88;100.00
10852;BME280;5479;52.046;6.314;2023-09-19T06:52:05;100835.13;;;16.04;100.00
10852;BME280;5479;52.046;6.314;2023-09-19T06:54:33;100838.00;;;16.12;100.00
10852;BME280;5479;52.046;6.314;2023-09-19T06:57:06;100838.91;;;16.33;100.00
10852;BME280;5479;52.046;6.314;2023-09-19T06:59:38;100838.47;;;16.28;100.00
10852;BME280;5479;52.046;6.314;2023-09-19T07:02:06;100825.56;;;16.33;100.00
10852;BME280;5479;52.046;6.314;2023-09-19T07:04:35;100831.19;;;16.51;100.00
10852;BME280;5479;52.046;6.314;2023-09-19T07:07:05;100824.94;;;16.72;100.00
10852;BME280;5479;52.046;6.314;2023-09-19T07:09:35;100823.75;;;16.65;100.00
10852;BME280;5479;52.046;6.314;2023-09-19T07:12:04;100815.94;;;16.73;100.00
10852;BME280;5479;52.046;6.314;2023-09-19T11:20:19;100780.66;;;22.61;80.91
10852;BME280;5479;52.046;6.314;2023-09-19T11:25:57;100779.50;;;22.71;78.29
10852;BME280;5479;52.046;6.314;2023-09-19T11:28:32;100776.28;;;22.36;85.99
10852;BME280;5479;52.046;6.314;2023-09-19T11:34:47;100752.47;;;22.31;91.06
10852;BME280;5479;52.046;6.314;2023-09-19T11:40:47;100744.97;;;23.46;82.56
10852;BME280;5479;52.046;6.314;2023-09-19T11:43:32;100745.28;;;23.51;81.78
10852;BME280;5479;52.046;6.314;2023-09-19T11:46:08;100747.41;;;23.01;82.73
10852;BME280;5479;52.046;6.314;2023-09-19T11:48:38;100749.16;;;22.69;87.93
10852;BME280;5479;52.046;6.314;2023-09-19T11:51:18;100760.09;;;22.60;88.69
10852;BME280;5479;52.046;6.314;2023-09-19T11:53:55;100745.94;;;22.58;89.96
10852;BME280;5479;52.046;6.314;2023-09-19T11:56:25;100760.97;;;22.44;85.96
10852;BME280;5479;52.046;6.314;2023-09-19T11:58:55;100752.00;;;22.36;88.25
10852;BME280;5479;52.046;6.314;2023-09-19T12:01:26;100757.72;;;22.16;90.04
10852;BME280;5479;52.046;6.314;2023-09-19T12:03:58;100755.66;;;22.10;91.68
10852;BME280;5479;52.046;6.314;2023-09-19T12:06:27;100755.22;;;22.23;87.98
10852;BME280;5479;52.046;6.314;2023-09-19T12:08:56;100739.84;;;22.15;91.02
10852;BME280;5479;52.046;6.314;2023-09-19T12:11:30;100739.00;;;22.47;85.26
10852;BME280;5479;52.046;6.314;2023-09-19T12:14:02;100749.69;;;22.65;83.52
10852;BME280;5479;52.046;6.314;2023-09-19T12:16:30;100746.63;;;22.52;83.89
10852;BME280;5479;52.046;6.314;2023-09-19T12:19:17;100745.75;;;22.43;86.34
10852;BME280;5479;52.046;6.314;2023-09-19T12:21:54;100740.38;;;22.35;86.83
10852;BME280;5479;52.046;6.314;2023-09-19T12:24:23;100753.47;;;22.06;91.27
10852;BME280;5479;52.046;6.314;2023-09-19T12:27:01;100746.03;;;22.00;89.09
10852;BME280;5479;52.046;6.314;2023-09-19T12:29:32;100720.94;;;22.07;92.86
10852;BME280;5479;52.046;6.314;2023-09-19T12:32:09;100720.97;;;22.56;90.95
10852;BME280;5479;52.046;6.314;2023-09-19T12:34:37;100731.63;;;22.73;81.42
10852;BME280;5479;52.046;6.314;2023-09-19T12:37:13;100717.56;;;22.94;82.39
10852;BME280;5479;52.046;6.314;2023-09-19T12:39:43;100734.69;;;23.25;80.96
10852;BME280;5479;52.046;6.314;2023-09-19T12:42:17;100728.81;;;23.22;79.93
10852;BME280;5479;52.046;6.314;2023-09-19T12:44:47;100726.28;;;23.20;77.55
10852;BME280;5479;52.046;6.314;2023-09-19T12:47:18;100732.28;;;22.83;76.95
10852;BME280;5479;52.046;6.314;2023-09-19T12:50:08;100747.13;;;22.63;83.67
10852;BME280;5479;52.046;6.314;2023-09-19T12:52:42;100736.69;;;22.76;78.71
10852;BME280;5479;52.046;6.314;2023-09-19T12:55:22;100730.41;;;22.36;80.62
10852;BME280;5479;52.046;6.314;2023-09-19T12:58:07;100737.00;;;22.33;88.27
10852;BME280;5479;52.046;6.314;2023-09-19T13:00:37;100736.66;;;22.12;86.84
10852;BME280;5479;52.046;6.314;2023-09-19T13:03:12;100728.94;;;21.83;90.33
10852;BME280;5479;52.046;6.314;2023-09-19T13:05:50;100736.88;;;21.77;98.30
10852;BME280;5479;52.046;6.314;2023-09-19T13:08:20;100726.72;;;21.62;93.44
10852;BME280;5479;52.046;6.314;2023-09-19T13:11:04;100717.63;;;21.63;95.45
10852;BME280;5479;52.046;6.314;2023-09-19T13:13:39;100739.75;;;21.41;97.51
10852;BME280;5479;52.046;6.314;2023-09-19T13:16:07;100735.63;;;21.21;99.11
10852;BME280;5479;52.046;6.314;2023-09-19T13:18:43;100728.06;;;20.99;100.00
10852;BME280;5479;52.046;6.314;2023-09-19T13:21:13;100712.44;;;21.02;100.00
10852;BME280;5479;52.046;6.314;2023-09-19T13:23:51;100727.13;;;21.08;100.00
10852;BME280;5479;52.046;6.314;2023-09-19T13:26:19;100726.38;;;20.98;100.00
10852;BME280;5479;52.046;6.314;2023-09-19T13:28:48;100733.53;;;20.89;100.00
10852;BME280;5479;52.046;6.314;2023-09-19T13:31:17;100720.78;;;20.91;100.00
10852;BME280;5479;52.046;6.314;2023-09-19T13:33:45;100719.50;;;21.03;100.00
10852;BME280;5479;52.046;6.314;2023-09-19T13:36:13;100726.19;;;21.17;100.00
10852;BME280;5479;52.046;6.314;2023-09-19T13:38:41;100714.44;;;21.00;100.00
10852;BME280;5479;52.046;6.314;2023-09-19T13:41:10;100717.81;;;21.28;100.00
10852;BME280;5479;52.046;6.314;2023-09-19T13:43:38;100718.91;;;21.51;98.86
10852;BME280;5479;52.046;6.314;2023-09-19T13:46:08;100720.22;;;21.39;100.00
10852;BME280;5479;52.046;6.314;2023-09-19T13:48:38;100706.16;;;21.53;99.63
10852;BME280;5479;52.046;6.314;2023-09-19T13:51:06;100720.16;;;21.65;96.24
10852;BME280;5479;52.046;6.314;2023-09-19T13:53:34;100722.34;;;21.70;98.33
10852;BME280;5479;52.046;6.314;2023-09-19T13:56:02;100715.59;;;21.65;98.07
10852;BME280;5479;52.046;6.314;2023-09-19T13:58:30;100699.81;;;21.79;98.96
10852;BME280;5479;52.046;6.314;2023-09-19T14:01:00;100712.78;;;21.83;98.30
10852;BME280;5479;52.046;6.314;2023-09-19T14:03:29;100709.94;;;21.85;99.49
10852;BME280;5479;52.046;6.314;2023-09-19T14:05:58;100710.69;;;21.53;100.00
10852;BME280;5479;52.046;6.314;2023-09-19T14:08:25;100703.00;;;21.32;100.00
10852;BME280;5479;52.046;6.314;2023-09-19T14:10:53;100702.94;;;21.16;100.00
10852;BME280;5479;52.046;6.314;2023-09-19T14:13:21;100706.44;;;21.09;100.00
10852;BME280;5479;52.046;6.314;2023-09-19T14:15:49;100702.59;;;21.11;100.00
10852;BME280;5479;52.046;6.314;2023-09-19T14:18:17;100713.06;;;21.22;100.00
10852;BME280;5479;52.046;6.314;2023-09-19T14:20:48;100713.16;;;21.38;100.00
10852;BME280;5479;52.046;6.314;2023-09-19T14:23:19;100708.03;;;21.61;100.00
10852;BME280;5479;52.046;6.314;2023-09-19T14:25:47;100708.56;;;21.81;99.66
10852;BME280;5479;52.046;6.314;2023-09-19T14:28:15;100709.94;;;21.85;100.00
10852;BME280;5479;52.046;6.314;2023-09-19T14:30:43;100712.72;;;21.67;100.00
10852;BME280;5479;52.046;6.314;2023-09-19T14:33:12;100715.19;;;21.86;99.86
10852;BME280;5479;52.046;6.314;2023-09-19T14:35:43;100709.31;;;21.91;100.00
10852;BME280;5479;52.046;6.314;2023-09-19T14:38:12;100700.81;;;21.86;98.60
10852;BME280;5479;52.046;6.314;2023-09-19T14:40:40;100709.25;;;21.83;100.00
10852;BME280;5479;52.046;6.314;2023-09-19T14:43:09;100709.56;;;21.72;99.31
10852;BME280;5479;52.046;6.314;2023-09-19T14:45:36;100703.84;;;21.75;100.00
10852;BME280;5479;52.046;6.314;2023-09-19T14:48:05;100716.47;;;21.66;100.00
10852;BME280;5479;52.046;6.314;2023-09-19T14:50:33;100699.59;;;21.56;100.00
10852;BME280;5479;52.046;6.314;2023-09-19T14:53:02;100715.84;;;21.38;100.00
10852;BME280;5479;52.046;6.314;2023-09-19T14:55:37;100714.59;;;20.99;100.00
10852;BME280;5479;52.046;6.314;2023-09-19T14:58:08;100711.50;;;20.86;100.00
10852;BME280;5479;52.046;6.314;2023-09-19T15:00:36;100706.75;;;20.80;100.00
10852;BME280;5479;52.046;6.314;2023-09-19T15:03:04;100693.78;;;20.75;100.00
10852;BME280;5479;52.046;6.314;2023-09-19T15:05:33;100699.25;;;20.91;100.00
10852;BME280;5479;52.046;6.314;2023-09-19T15:08:01;100698.72;;;20.88;100.00
10852;BME280;5479;52.046;6.314;2023-09-19T15:10:29;100690.13;;;20.84;100.00
10852;BME280;5479;52.046;6.314;2023-09-19T15:12:59;100697.25;;;20.93;100.00
10852;BME280;5479;52.046;6.314;2023-09-19T15:15:26;100697.03;;;20.87;100.00
10852;BME280;5479;52.046;6.314;2023-09-19T15:17:54;100697.56;;;20.90;100.00
10852;BME280;5479;52.046;6.314;2023-09-19T15:20:23;100701.72;;;20.85;100.00
10852;BME280;5479;52.046;6.314;2023-09-19T15:22:51;100695.56;;;20.67;100.00
10852;BME280;5479;52.046;6.314;2023-09-19T15:25:25;100701.25;;;20.64;100.00
10852;BME280;5479;52.046;6.314;2023-09-19T15:27:54;100698.88;;;20.61;100.00
10852;BME280;5479;52.046;6.314;2023-09-19T15:30:24;100700.53;;;20.54;100.00
10852;BME280;5479;52.046;6.314;2023-09-19T15:32:52;100697.47;;;20.49;100.00
10852;BME280;5479;52.046;6.314;2023-09-19T15:35:20;100707.19;;;20.50;100.00
10852;BME280;5479;52.046;6.314;2023-09-19T15:37:48;100706.25;;;20.33;100.00
10852;BME280;5479;52.046;6.314;2023-09-19T15:40:16;100695.44;;;20.25;100.00
10852;BME280;5479;52.046;6.314;2023-09-19T15:42:45;100702.91;;;20.21;100.00
10852;BME280;5479;52.046;6.314;2023-09-19T15:45:13;100691.78;;;20.16;100.00
10852;BME280;5479;52.046;6.314;2023-09-19T15:47:43;100694.09;;;20.11;100.00
10852;BME280;5479;52.046;6.314;2023-09-19T15:50:11;100691.34;;;20.03;100.00
10852;BME280;5479;52.046;6.314;2023-09-19T15:52:40;100699.84;;;19.99;100.00
10852;BME280;5479;52.046;6.314;2023-09-19T15:55:08;100698.47;;;19.95;100.00
10852;BME280;5479;52.046;6.314;2023-09-19T15:57:38;100704.06;;;20.01;100.00
10852;BME280;5479;52.046;6.314;2023-09-19T16:00:07;100693.09;;;19.95;100.00
10852;BME280;5479;52.046;6.314;2023-09-19T16:02:46;100697.78;;;19.93;100.00
10852;BME280;5479;52.046;6.314;2023-09-19T16:05:16;100702.78;;;19.88;100.00
10852;BME280;5479;52.046;6.314;2023-09-19T16:07:44;100701.22;;;19.85;100.00
10852;BME280;5479;52.046;6.314;2023-09-19T16:10:12;100701.00;;;19.78;100.00
10852;BME280;5479;52.046;6.314;2023-09-19T16:12:41;100700.31;;;19.76;100.00
10852;BME280;5479;52.046;6.314;2023-09-19T16:15:09;100710.19;;;19.76;100.00
10852;BME280;5479;52.046;6.314;2023-09-19T16:17:40;100704.53;;;19.79;100.00
10852;BME280;5479;52.046;6.314;2023-09-19T16:20:10;100700.59;;;19.73;100.00
10852;BME280;5479;52.046;6.314;2023-09-19T16:22:38;100698.34;;;19.69;100.00
10852;BME280;5479;52.046;6.314;2023-09-19T16:25:07;100707.44;;;19.68;100.00
10852;BME280;5479;52.046;6.314;2023-09-19T16:27:38;100705.72;;;19.67;100.00
10852;BME280;5479;52.046;6.314;2023-09-19T16:30:07;100709.72;;;19.63;100.00
10852;BME280;5479;52.046;6.314;2023-09-19T16:32:37;100709.84;;;19.61;100.00
10852;BME280;5479;52.046;6.314;2023-09-19T16:35:05;100713.84;;;19.57;100.00
10852;BME280;5479;52.046;6.314;2023-09-19T16:37:37;100718.06;;;19.60;100.00
10852;BME280;5479;52.046;6.314;2023-09-19T16:40:06;100722.69;;;19.67;100.00
10852;BME280;5479;52.046;6.314;2023-09-19T16:42:35;100715.03;;;19.72;100.00
10852;BME280;5479;52.046;6.314;2023-09-19T16:45:04;100713.28;;;19.81;100.00
10852;BME280;5479;52.046;6.314;2023-09-19T16:47:33;100708.06;;;19.79;100.00
10852;BME280;5479;52.046;6.314;2023-09-19T16:50:01;100720.00;;;19.67;100.00
10852;BME280;5479;52.046;6.314;2023-09-19T16:52:29;100718.94;;;19.60;100.00
10852;BME280;5479;52.046;6.314;2023-09-19T16:54:58;100722.75;;;19.58;100.00
10852;BME280;5479;52.046;6.314;2023-09-19T16:57:26;100719.06;;;19.59;100.00
10852;BME280;5479;52.046;6.314;2023-09-19T16:59:54;100720.66;;;19.52;100.00
10852;BME280;5479;52.046;6.314;2023-09-19T17:02:22;100723.19;;;19.53;100.00
10852;BME280;5479;52.046;6.314;2023-09-19T17:04:50;100717.19;;;19.42;100.00
10852;BME280;5479;52.046;6.314;2023-09-19T17:07:18;100712.81;;;19.41;100.00
10852;BME280;5479;52.046;6.314;2023-09-19T17:09:46;100706.47;;;19.42;100.00
10852;BME280;5479;52.046;6.314;2023-09-19T17:12:15;100698.41;;;19.42;100.00
10852;BME280;5479;52.046;6.314;2023-09-19T17:14:43;100705.00;;;19.47;100.00
10852;BME280;5479;52.046;6.314;2023-09-19T17:17:11;100708.72;;;19.37;100.00
10852;BME280;5479;52.046;6.314;2023-09-19T17:19:39;100697.38;;;19.43;100.00
10852;BME280;5479;52.046;6.314;2023-09-19T17:22:07;100705.31;;;19.35;100.00
10852;BME280;5479;52.046;6.314;2023-09-19T17:24:35;100720.19;;;19.39;100.00
10852;BME280;5479;52.046;6.314;2023-09-19T17:27:04;100719.75;;;19.34;100.00
10852;BME280;5479;52.046;6.314;2023-09-19T17:29:34;100719.75;;;19.34;100.00
10852;BME280;5479;52.046;6.314;2023-09-19T17:32:03;100714.69;;;19.31;100.00